sensor_id;sensor_type;location;lat;lon;timestamp;P1;durP1;ratioP1;P2;durP2;ratioP2
78072;SDS011;67281;48.770;11.440;2023-03-01T00:01:02;15.10;;;11.93;;
78072;SDS011;67281;48.770;11.440;2023-03-01T00:03:34;13.67;;;11.70;;
78072;SDS011;67281;48.770;11.440;2023-03-01T00:06:01;17.30;;;12.23;;
78072;SDS011;67281;48.770;11.440;2023-03-01T00:08:29;15.83;;;11.67;;
78072;SDS011;67281;48.770;11.440;2023-03-01T00:11:31;16.37;;;11.97;;
78072;SDS011;67281;48.770;11.440;2023-03-01T00:13:55;15.67;;;11.73;;
78072;SDS011;67281;48.770;11.440;2023-03-01T00:16:34;15.17;;;12.23;;
78072;SDS011;67281;48.770;11.440;2023-03-01T00:19:05;16.47;;;12.73;;
78072;SDS011;67281;48.770;11.440;2023-03-01T00:21:33;17.03;;;12.27;;
78072;SDS011;67281;48.770;11.440;2023-03-01T00:24:01;15.20;;;12.27;;
78072;SDS011;67281;48.770;11.440;2023-03-01T00:26:29;14.60;;;12.07;;
78072;SDS011;67281;48.770;11.440;2023-03-01T00:28:56;17.23;;;12.80;;
78072;SDS011;67281;48.770;11.440;2023-03-01T00:31:28;15.70;;;12.33;;
78072;SDS011;67281;48.770;11.440;2023-03-01T00:33:57;18.40;;;13.00;;
78072;SDS011;67281;48.770;11.440;2023-03-01T00:36:26;15.00;;;11.53;;
78072;SDS011;67281;48.770;11.440;2023-03-01T00:38:58;16.60;;;12.57;;
78072;SDS011;67281;48.770;11.440;2023-03-01T00:41:26;14.17;;;11.17;;
78072;SDS011;67281;48.770;11.440;2023-03-01T00:43:53;14.97;;;12.93;;
78072;SDS011;67281;48.770;11.440;2023-03-01T00:46:21;14.63;;;11.77;;
78072;SDS011;67281;48.770;11.440;2023-03-01T00:48:53;15.33;;;12.07;;
78072;SDS011;67281;48.770;11.440;2023-03-01T00:51:21;15.93;;;12.10;;
78072;SDS011;67281;48.770;11.440;2023-03-01T00:53:50;16.10;;;11.90;;
78072;SDS011;67281;48.770;11.440;2023-03-01T00:56:18;15.27;;;11.77;;
78072;SDS011;67281;48.770;11.440;2023-03-01T00:58:45;13.67;;;11.00;;
78072;SDS011;67281;48.770;11.440;2023-03-01T01:01:16;15.00;;;11.97;;
78072;SDS011;67281;48.770;11.440;2023-03-01T01:03:48;16.60;;;11.90;;
78072;SDS011;67281;48.770;11.440;2023-03-01T01:06:18;16.80;;;12.43;;
78072;SDS011;67281;48.770;11.440;2023-03-01T01:08:48;15.70;;;12.30;;
78072;SDS011;67281;48.770;11.440;2023-03-01T01:11:15;14.67;;;10.77;;
78072;SDS011;67281;48.770;11.440;2023-03-01T01:13:43;15.03;;;12.53;;
78072;SDS011;67281;48.770;11.440;2023-03-01T01:16:12;15.87;;;12.73;;
78072;SDS011;67281;48.770;11.440;2023-03-01T01:18:39;14.43;;;11.60;;
78072;SDS011;67281;48.770;11.440;2023-03-01T01:21:08;16.33;;;12.33;;
78072;SDS011;67281;48.770;11.440;2023-03-01T01:23:38;14.47;;;12.30;;
78072;SDS011;67281;48.770;11.440;2023-03-01T01:26:16;15.57;;;11.30;;
78072;SDS011;67281;48.770;11.440;2023-03-01T01:28:45;14.40;;;11.17;;
78072;SDS011;67281;48.770;11.440;2023-03-01T01:31:13;13.43;;;10.97;;
78072;SDS011;67281;48.770;11.440;2023-03-01T01:33:40;16.40;;;11.93;;
78072;SDS011;67281;48.770;11.440;2023-03-01T01:36:07;14.60;;;11.80;;
78072;SDS011;67281;48.770;11.440;2023-03-01T01:38:35;15.87;;;12.53;;
78072;SDS011;67281;48.770;11.440;2023-03-01T01:41:04;14.43;;;11.80;;
78072;SDS011;67281;48.770;11.440;2023-03-01T01:43:36;15.43;;;12.20;;
78072;SDS011;67281;48.770;11.440;2023-03-01T01:48:44;14.87;;;11.50;;
78072;SDS011;67281;48.770;11.440;2023-03-01T01:51:18;14.73;;;11.43;;
78072;SDS011;67281;48.770;11.440;2023-03-01T01:53:51;13.70;;;12.13;;
78072;SDS011;67281;48.770;11.440;2023-03-01T01:56:21;14.63;;;11.07;;
78072;SDS011;67281;48.770;11.440;2023-03-01T01:58:50;15.67;;;11.40;;
78072;SDS011;67281;48.770;11.440;2023-03-01T02:01:18;18.47;;;12.10;;
78072;SDS011;67281;48.770;11.440;2023-03-01T02:03:45;16.17;;;13.00;;
78072;SDS011;67281;48.770;11.440;2023-03-01T02:08:59;15.33;;;11.73;;
78072;SDS011;67281;48.770;11.440;2023-03-01T02:11:29;14.43;;;11.83;;
78072;SDS011;67281;48.770;11.440;2023-03-01T02:13:57;16.17;;;11.90;;
78072;SDS011;67281;48.770;11.440;2023-03-01T02:16:24;13.30;;;11.67;;
78072;SDS011;67281;48.770;11.440;2023-03-01T02:18:52;15.63;;;12.60;;
78072;SDS011;67281;48.770;11.440;2023-03-01T02:21:23;19.93;;;14.10;;
78072;SDS011;67281;48.770;11.440;2023-03-01T02:24:25;18.03;;;12.57;;
78072;SDS011;67281;48.770;11.440;2023-03-01T02:26:53;15.57;;;11.90;;
78072;SDS011;67281;48.770;11.440;2023-03-01T02:29:24;18.33;;;12.87;;
78072;SDS011;67281;48.770;11.440;2023-03-01T02:31:53;16.30;;;12.13;;
78072;SDS011;67281;48.770;11.440;2023-03-01T02:34:23;16.87;;;13.10;;
78072;SDS011;67281;48.770;11.440;2023-03-01T02:39:36;16.00;;;13.13;;
78072;SDS011;67281;48.770;11.440;2023-03-01T02:42:20;16.77;;;13.27;;
78072;SDS011;67281;48.770;11.440;2023-03-01T02:44:52;14.30;;;11.73;;
78072;SDS011;67281;48.770;11.440;2023-03-01T02:47:20;17.07;;;13.30;;
78072;SDS011;67281;48.770;11.440;2023-03-01T02:49:46;15.97;;;11.97;;
78072;SDS011;67281;48.770;11.440;2023-03-01T02:55:14;18.23;;;14.07;;
78072;SDS011;67281;48.770;11.440;2023-03-01T02:57:43;17.13;;;13.27;;
78072;SDS011;67281;48.770;11.440;2023-03-01T03:00:13;15.80;;;13.63;;
78072;SDS011;67281;48.770;11.440;2023-03-01T03:02:50;15.57;;;12.07;;
78072;SDS011;67281;48.770;11.440;2023-03-01T03:05:23;17.30;;;13.80;;
78072;SDS011;67281;48.770;11.440;2023-03-01T03:07:52;17.20;;;13.00;;
78072;SDS011;67281;48.770;11.440;2023-03-01T03:10:23;17.43;;;12.90;;
78072;SDS011;67281;48.770;11.440;2023-03-01T03:13:02;18.77;;;13.97;;
78072;SDS011;67281;48.770;11.440;2023-03-01T03:15:30;17.13;;;13.17;;
78072;SDS011;67281;48.770;11.440;2023-03-01T03:17:58;19.47;;;13.60;;
78072;SDS011;67281;48.770;11.440;2023-03-01T03:20:26;16.50;;;13.37;;
78072;SDS011;67281;48.770;11.440;2023-03-01T03:22:54;21.50;;;13.83;;
78072;SDS011;67281;48.770;11.440;2023-03-01T03:25:22;17.63;;;12.37;;
78072;SDS011;67281;48.770;11.440;2023-03-01T03:27:50;18.23;;;14.13;;
78072;SDS011;67281;48.770;11.440;2023-03-01T03:30:27;17.53;;;13.73;;
78072;SDS011;67281;48.770;11.440;2023-03-01T03:32:56;18.17;;;13.27;;
78072;SDS011;67281;48.770;11.440;2023-03-01T03:35:27;19.00;;;12.43;;
78072;SDS011;67281;48.770;11.440;2023-03-01T03:37:59;16.37;;;12.60;;
78072;SDS011;67281;48.770;11.440;2023-03-01T03:40:37;16.70;;;13.20;;
78072;SDS011;67281;48.770;11.440;2023-03-01T03:43:16;17.20;;;13.03;;
78072;SDS011;67281;48.770;11.440;2023-03-01T03:45:45;18.37;;;13.87;;
78072;SDS011;67281;48.770;11.440;2023-03-01T03:48:13;17.43;;;13.47;;
78072;SDS011;67281;48.770;11.440;2023-03-01T03:50:40;17.20;;;12.83;;
78072;SDS011;67281;48.770;11.440;2023-03-01T03:53:10;16.90;;;12.80;;
78072;SDS011;67281;48.770;11.440;2023-03-01T03:55:38;17.40;;;13.50;;
78072;SDS011;67281;48.770;11.440;2023-03-01T03:58:06;23.07;;;13.73;;
78072;SDS011;67281;48.770;11.440;2023-03-01T04:00:40;18.13;;;14.13;;
78072;SDS011;67281;48.770;11.440;2023-03-01T04:03:08;17.37;;;13.40;;
78072;SDS011;67281;48.770;11.440;2023-03-01T04:05:37;21.33;;;14.43;;
78072;SDS011;67281;48.770;11.440;2023-03-01T04:08:04;17.23;;;13.53;;
78072;SDS011;67281;48.770;11.440;2023-03-01T04:10:35;17.67;;;13.50;;
78072;SDS011;67281;48.770;11.440;2023-03-01T04:13:04;23.17;;;13.77;;
78072;SDS011;67281;48.770;11.440;2023-03-01T04:15:33;15.37;;;13.30;;
78072;SDS011;67281;48.770;11.440;2023-03-01T04:17:59;19.33;;;13.67;;
78072;SDS011;67281;48.770;11.440;2023-03-01T04:20:28;19.63;;;14.50;;
78072;SDS011;67281;48.770;11.440;2023-03-01T04:25:25;20.00;;;13.20;;
78072;SDS011;67281;48.770;11.440;2023-03-01T04:27:52;18.10;;;13.47;;
78072;SDS011;67281;48.770;11.440;2023-03-01T04:30:18;18.43;;;13.83;;
78072;SDS011;67281;48.770;11.440;2023-03-01T04:32:45;18.13;;;13.57;;
78072;SDS011;67281;48.770;11.440;2023-03-01T04:35:12;21.63;;;13.23;;
78072;SDS011;67281;48.770;11.440;2023-03-01T04:37:38;18.43;;;14.27;;
78072;SDS011;67281;48.770;11.440;2023-03-01T04:40:05;19.43;;;14.30;;
78072;SDS011;67281;48.770;11.440;2023-03-01T04:42:42;20.67;;;14.30;;
78072;SDS011;67281;48.770;11.440;2023-03-01T04:45:09;18.03;;;14.03;;
78072;SDS011;67281;48.770;11.440;2023-03-01T04:47:43;18.93;;;13.53;;
78072;SDS011;67281;48.770;11.440;2023-03-01T04:50:11;22.13;;;15.63;;
78072;SDS011;67281;48.770;11.440;2023-03-01T04:52:39;17.67;;;13.83;;
78072;SDS011;67281;48.770;11.440;2023-03-01T04:55:06;17.90;;;13.73;;
78072;SDS011;67281;48.770;11.440;2023-03-01T04:57:33;18.53;;;14.10;;
78072;SDS011;67281;48.770;11.440;2023-03-01T05:00:00;20.80;;;13.70;;
78072;SDS011;67281;48.770;11.440;2023-03-01T05:02:27;19.50;;;14.07;;
78072;SDS011;67281;48.770;11.440;2023-03-01T05:04:54;19.57;;;13.97;;
78072;SDS011;67281;48.770;11.440;2023-03-01T05:07:23;19.07;;;14.07;;
78072;SDS011;67281;48.770;11.440;2023-03-01T05:09:51;19.77;;;13.80;;
78072;SDS011;67281;48.770;11.440;2023-03-01T05:12:20;22.40;;;14.07;;
78072;SDS011;67281;48.770;11.440;2023-03-01T05:14:46;22.13;;;14.20;;
78072;SDS011;67281;48.770;11.440;2023-03-01T05:17:13;19.20;;;14.57;;
78072;SDS011;67281;48.770;11.440;2023-03-01T05:19:40;17.03;;;13.07;;
78072;SDS011;67281;48.770;11.440;2023-03-01T05:22:08;17.67;;;13.77;;
78072;SDS011;67281;48.770;11.440;2023-03-01T05:24:35;18.00;;;13.13;;
78072;SDS011;67281;48.770;11.440;2023-03-01T05:27:02;19.73;;;13.63;;
78072;SDS011;67281;48.770;11.440;2023-03-01T05:29:30;18.33;;;13.07;;
78072;SDS011;67281;48.770;11.440;2023-03-01T05:31:58;21.07;;;13.63;;
78072;SDS011;67281;48.770;11.440;2023-03-01T05:34:28;22.47;;;14.00;;
78072;SDS011;67281;48.770;11.440;2023-03-01T05:36:57;18.30;;;13.80;;
78072;SDS011;67281;48.770;11.440;2023-03-01T05:39:26;17.47;;;13.17;;
78072;SDS011;67281;48.770;11.440;2023-03-01T05:41:54;19.70;;;13.57;;
78072;SDS011;67281;48.770;11.440;2023-03-01T05:44:24;17.63;;;14.03;;
78072;SDS011;67281;48.770;11.440;2023-03-01T05:46:51;17.90;;;13.93;;
78072;SDS011;67281;48.770;11.440;2023-03-01T05:49:18;17.93;;;14.67;;
78072;SDS011;67281;48.770;11.440;2023-03-01T05:51:48;17.30;;;13.73;;
78072;SDS011;67281;48.770;11.440;2023-03-01T05:54:17;20.13;;;13.90;;
78072;SDS011;67281;48.770;11.440;2023-03-01T05:56:44;20.53;;;14.30;;
78072;SDS011;67281;48.770;11.440;2023-03-01T05:59:11;18.03;;;13.80;;
78072;SDS011;67281;48.770;11.440;2023-03-01T06:01:38;16.80;;;13.80;;
78072;SDS011;67281;48.770;11.440;2023-03-01T06:04:04;20.17;;;14.63;;
78072;SDS011;67281;48.770;11.440;2023-03-01T06:06:36;20.87;;;14.33;;
78072;SDS011;67281;48.770;11.440;2023-03-01T06:09:04;20.30;;;14.87;;
78072;SDS011;67281;48.770;11.440;2023-03-01T06:11:34;18.53;;;13.43;;
78072;SDS011;67281;48.770;11.440;2023-03-01T06:14:01;20.13;;;13.30;;
78072;SDS011;67281;48.770;11.440;2023-03-01T06:16:28;19.67;;;13.80;;
78072;SDS011;67281;48.770;11.440;2023-03-01T06:18:55;20.63;;;15.07;;
78072;SDS011;67281;48.770;11.440;2023-03-01T06:21:22;18.73;;;13.53;;
78072;SDS011;67281;48.770;11.440;2023-03-01T06:23:48;17.90;;;14.33;;
78072;SDS011;67281;48.770;11.440;2023-03-01T06:26:15;18.70;;;14.50;;
78072;SDS011;67281;48.770;11.440;2023-03-01T06:28:42;22.43;;;15.07;;
78072;SDS011;67281;48.770;11.440;2023-03-01T06:31:12;23.93;;;13.77;;
78072;SDS011;67281;48.770;11.440;2023-03-01T06:33:39;19.57;;;13.50;;
78072;SDS011;67281;48.770;11.440;2023-03-01T06:36:06;21.17;;;13.47;;
78072;SDS011;67281;48.770;11.440;2023-03-01T06:38:33;19.90;;;13.03;;
78072;SDS011;67281;48.770;11.440;2023-03-01T06:41:00;21.27;;;14.47;;
78072;SDS011;67281;48.770;11.440;2023-03-01T06:43:27;21.53;;;13.43;;
78072;SDS011;67281;48.770;11.440;2023-03-01T06:45:54;19.57;;;13.03;;
78072;SDS011;67281;48.770;11.440;2023-03-01T06:48:21;21.43;;;13.90;;
78072;SDS011;67281;48.770;11.440;2023-03-01T06:50:48;24.10;;;14.47;;
78072;SDS011;67281;48.770;11.440;2023-03-01T06:53:15;21.90;;;14.03;;
78072;SDS011;67281;48.770;11.440;2023-03-01T06:55:42;23.27;;;14.57;;
78072;SDS011;67281;48.770;11.440;2023-03-01T06:58:08;23.80;;;14.07;;
78072;SDS011;67281;48.770;11.440;2023-03-01T07:00:35;21.23;;;15.03;;
78072;SDS011;67281;48.770;11.440;2023-03-01T07:03:02;21.40;;;13.90;;
78072;SDS011;67281;48.770;11.440;2023-03-01T07:05:29;27.07;;;14.47;;
78072;SDS011;67281;48.770;11.440;2023-03-01T07:07:56;20.83;;;15.00;;
78072;SDS011;67281;48.770;11.440;2023-03-01T07:10:24;21.80;;;14.70;;
78072;SDS011;67281;48.770;11.440;2023-03-01T07:12:56;24.73;;;14.73;;
78072;SDS011;67281;48.770;11.440;2023-03-01T07:15:25;22.63;;;14.90;;
78072;SDS011;67281;48.770;11.440;2023-03-01T07:17:52;20.13;;;14.10;;
78072;SDS011;67281;48.770;11.440;2023-03-01T07:20:19;25.30;;;14.60;;
78072;SDS011;67281;48.770;11.440;2023-03-01T07:22:52;23.40;;;14.77;;
78072;SDS011;67281;48.770;11.440;2023-03-01T07:25:19;19.80;;;14.30;;
78072;SDS011;67281;48.770;11.440;2023-03-01T07:27:50;28.23;;;15.20;;
78072;SDS011;67281;48.770;11.440;2023-03-01T07:30:17;24.07;;;14.80;;
78072;SDS011;67281;48.770;11.440;2023-03-01T07:32:44;24.97;;;15.00;;
78072;SDS011;67281;48.770;11.440;2023-03-01T07:35:12;25.17;;;15.00;;
78072;SDS011;67281;48.770;11.440;2023-03-01T07:37:39;24.13;;;14.27;;
78072;SDS011;67281;48.770;11.440;2023-03-01T07:40:06;22.10;;;14.13;;
78072;SDS011;67281;48.770;11.440;2023-03-01T07:42:33;22.50;;;14.80;;
78072;SDS011;67281;48.770;11.440;2023-03-01T07:45:00;20.20;;;13.30;;
78072;SDS011;67281;48.770;11.440;2023-03-01T07:47:27;21.27;;;13.87;;
78072;SDS011;67281;48.770;11.440;2023-03-01T07:49:56;20.43;;;14.23;;
78072;SDS011;67281;48.770;11.440;2023-03-01T07:52:27;22.50;;;13.10;;
78072;SDS011;67281;48.770;11.440;2023-03-01T07:54:54;22.87;;;12.90;;
78072;SDS011;67281;48.770;11.440;2023-03-01T07:57:24;17.83;;;14.00;;
78072;SDS011;67281;48.770;11.440;2023-03-01T07:59:51;20.20;;;13.90;;
78072;SDS011;67281;48.770;11.440;2023-03-01T08:02:18;19.13;;;14.27;;
78072;SDS011;67281;48.770;11.440;2023-03-01T08:04:45;19.43;;;13.27;;
78072;SDS011;67281;48.770;11.440;2023-03-01T08:07:12;20.77;;;13.63;;
78072;SDS011;67281;48.770;11.440;2023-03-01T08:09:38;20.87;;;13.63;;
78072;SDS011;67281;48.770;11.440;2023-03-01T08:12:05;19.67;;;13.03;;
78072;SDS011;67281;48.770;11.440;2023-03-01T08:14:32;21.93;;;14.10;;
78072;SDS011;67281;48.770;11.440;2023-03-01T08:16:59;21.10;;;14.07;;
78072;SDS011;67281;48.770;11.440;2023-03-01T08:19:27;18.73;;;13.67;;
78072;SDS011;67281;48.770;11.440;2023-03-01T08:21:54;16.07;;;11.10;;
78072;SDS011;67281;48.770;11.440;2023-03-01T08:24:24;18.03;;;12.67;;
78072;SDS011;67281;48.770;11.440;2023-03-01T08:26:52;17.20;;;13.70;;
78072;SDS011;67281;48.770;11.440;2023-03-01T08:29:19;18.90;;;13.97;;
78072;SDS011;67281;48.770;11.440;2023-03-01T08:31:46;21.20;;;14.27;;
78072;SDS011;67281;48.770;11.440;2023-03-01T08:34:17;25.87;;;14.00;;
78072;SDS011;67281;48.770;11.440;2023-03-01T08:36:45;19.07;;;13.83;;
78072;SDS011;67281;48.770;11.440;2023-03-01T08:39:13;21.40;;;13.70;;
78072;SDS011;67281;48.770;11.440;2023-03-01T08:41:42;21.10;;;12.77;;
78072;SDS011;67281;48.770;11.440;2023-03-01T08:44:15;21.03;;;13.10;;
78072;SDS011;67281;48.770;11.440;2023-03-01T08:46:46;15.53;;;12.43;;
78072;SDS011;67281;48.770;11.440;2023-03-01T08:49:14;17.97;;;12.30;;
78072;SDS011;67281;48.770;11.440;2023-03-01T08:51:42;17.63;;;13.07;;
78072;SDS011;67281;48.770;11.440;2023-03-01T08:54:11;16.50;;;12.20;;
78072;SDS011;67281;48.770;11.440;2023-03-01T08:56:41;17.37;;;13.53;;
78072;SDS011;67281;48.770;11.440;2023-03-01T08:59:08;18.40;;;13.40;;
78072;SDS011;67281;48.770;11.440;2023-03-01T09:01:36;18.27;;;13.20;;
78072;SDS011;67281;48.770;11.440;2023-03-01T09:04:03;19.00;;;12.63;;
78072;SDS011;67281;48.770;11.440;2023-03-01T09:06:33;18.07;;;12.53;;
78072;SDS011;67281;48.770;11.440;2023-03-01T09:09:00;23.00;;;14.67;;
78072;SDS011;67281;48.770;11.440;2023-03-01T09:11:28;19.67;;;13.53;;
78072;SDS011;67281;48.770;11.440;2023-03-01T09:13:56;18.97;;;12.50;;
78072;SDS011;67281;48.770;11.440;2023-03-01T09:16:23;20.07;;;13.67;;
78072;SDS011;67281;48.770;11.440;2023-03-01T09:18:51;17.63;;;12.53;;
78072;SDS011;67281;48.770;11.440;2023-03-01T09:21:20;20.40;;;14.20;;
78072;SDS011;67281;48.770;11.440;2023-03-01T09:24:05;18.30;;;12.40;;
78072;SDS011;67281;48.770;11.440;2023-03-01T09:26:32;16.53;;;12.83;;
78072;SDS011;67281;48.770;11.440;2023-03-01T09:28:59;16.03;;;10.97;;
78072;SDS011;67281;48.770;11.440;2023-03-01T09:31:29;17.13;;;12.43;;
78072;SDS011;67281;48.770;11.440;2023-03-01T09:33:56;14.93;;;11.37;;
78072;SDS011;67281;48.770;11.440;2023-03-01T09:36:24;14.73;;;11.13;;
78072;SDS011;67281;48.770;11.440;2023-03-01T09:38:52;16.13;;;11.50;;
78072;SDS011;67281;48.770;11.440;2023-03-01T09:44:02;15.73;;;12.43;;
78072;SDS011;67281;48.770;11.440;2023-03-01T09:46:43;13.93;;;10.33;;
78072;SDS011;67281;48.770;11.440;2023-03-01T09:49:19;17.27;;;12.90;;
78072;SDS011;67281;48.770;11.440;2023-03-01T09:51:58;15.70;;;11.73;;
78072;SDS011;67281;48.770;11.440;2023-03-01T09:54:46;18.97;;;13.00;;
78072;SDS011;67281;48.770;11.440;2023-03-01T09:57:17;15.20;;;12.03;;
78072;SDS011;67281;48.770;11.440;2023-03-01T10:02:37;17.77;;;11.30;;
78072;SDS011;67281;48.770;11.440;2023-03-01T10:05:09;13.23;;;10.30;;
78072;SDS011;67281;48.770;11.440;2023-03-01T10:10:28;19.67;;;11.97;;
78072;SDS011;67281;48.770;11.440;2023-03-01T10:13:10;16.93;;;12.27;;
78072;SDS011;67281;48.770;11.440;2023-03-01T10:15:50;16.93;;;11.53;;
78072;SDS011;67281;48.770;11.440;2023-03-01T10:18:23;17.13;;;11.47;;
78072;SDS011;67281;48.770;11.440;2023-03-01T10:23:30;19.47;;;12.83;;
78072;SDS011;67281;48.770;11.440;2023-03-01T10:31:48;15.93;;;10.17;;
78072;SDS011;67281;48.770;11.440;2023-03-01T10:34:31;14.10;;;9.20;;
78072;SDS011;67281;48.770;11.440;2023-03-01T10:40:07;14.83;;;10.63;;
78072;SDS011;67281;48.770;11.440;2023-03-01T10:42:39;16.30;;;12.00;;
78072;SDS011;67281;48.770;11.440;2023-03-01T10:45:15;15.80;;;11.83;;
78072;SDS011;67281;48.770;11.440;2023-03-01T10:48:14;15.70;;;9.37;;
78072;SDS011;67281;48.770;11.440;2023-03-01T10:51:06;18.47;;;12.57;;
78072;SDS011;67281;48.770;11.440;2023-03-01T10:53:38;13.80;;;10.63;;
78072;SDS011;67281;48.770;11.440;2023-03-01T10:56:09;13.07;;;10.83;;
78072;SDS011;67281;48.770;11.440;2023-03-01T10:59:04;14.87;;;11.17;;
78072;SDS011;67281;48.770;11.440;2023-03-01T11:01:32;16.97;;;11.87;;
78072;SDS011;67281;48.770;11.440;2023-03-01T11:06:31;16.33;;;11.70;;
78072;SDS011;67281;48.770;11.440;2023-03-01T11:09:19;14.47;;;10.73;;
78072;SDS011;67281;48.770;11.440;2023-03-01T11:11:59;15.63;;;11.10;;
78072;SDS011;67281;48.770;11.440;2023-03-01T11:14:27;13.67;;;10.33;;
78072;SDS011;67281;48.770;11.440;2023-03-01T11:17:04;15.73;;;11.17;;
78072;SDS011;67281;48.770;11.440;2023-03-01T11:19:37;12.07;;;10.23;;
78072;SDS011;67281;48.770;11.440;2023-03-01T11:24:50;13.43;;;10.50;;
78072;SDS011;67281;48.770;11.440;2023-03-01T11:27:36;11.77;;;7.83;;
78072;SDS011;67281;48.770;11.440;2023-03-01T11:30:15;14.93;;;11.20;;
78072;SDS011;67281;48.770;11.440;2023-03-01T11:33:01;13.80;;;9.47;;
78072;SDS011;67281;48.770;11.440;2023-03-01T11:35:45;13.40;;;9.37;;
78072;SDS011;67281;48.770;11.440;2023-03-01T11:38:30;13.67;;;11.40;;
78072;SDS011;67281;48.770;11.440;2023-03-01T11:41:23;13.63;;;11.73;;
78072;SDS011;67281;48.770;11.440;2023-03-01T11:44:03;15.70;;;11.83;;
78072;SDS011;67281;48.770;11.440;2023-03-01T11:46:48;19.10;;;10.03;;
78072;SDS011;67281;48.770;11.440;2023-03-01T11:52:31;12.30;;;10.07;;
78072;SDS011;67281;48.770;11.440;2023-03-01T11:55:17;16.30;;;11.30;;
78072;SDS011;67281;48.770;11.440;2023-03-01T12:00:49;14.43;;;10.70;;
78072;SDS011;67281;48.770;11.440;2023-03-01T12:10:13;13.77;;;10.67;;
78072;SDS011;67281;48.770;11.440;2023-03-01T12:20:58;13.80;;;10.37;;
78072;SDS011;67281;48.770;11.440;2023-03-01T12:45:27;15.57;;;9.90;;
78072;SDS011;67281;48.770;11.440;2023-03-01T12:50:38;13.10;;;9.37;;
78072;SDS011;67281;48.770;11.440;2023-03-01T12:56:04;11.63;;;9.87;;
78072;SDS011;67281;48.770;11.440;2023-03-01T13:17:51;12.20;;;7.67;;
78072;SDS011;67281;48.770;11.440;2023-03-01T13:20:23;13.17;;;9.63;;
78072;SDS011;67281;48.770;11.440;2023-03-01T13:28:47;12.57;;;9.63;;
78072;SDS011;67281;48.770;11.440;2023-03-01T13:33:49;12.07;;;9.13;;
78072;SDS011;67281;48.770;11.440;2023-03-01T13:38:57;15.70;;;10.57;;
78072;SDS011;67281;48.770;11.440;2023-03-01T13:46:49;13.10;;;10.60;;
78072;SDS011;67281;48.770;11.440;2023-03-01T13:49:26;14.20;;;8.73;;
78072;SDS011;67281;48.770;11.440;2023-03-01T13:52:53;15.83;;;10.60;;
78072;SDS011;67281;48.770;11.440;2023-03-01T13:55:14;12.77;;;9.40;;
78072;SDS011;67281;48.770;11.440;2023-03-01T13:57:46;14.27;;;10.07;;
78072;SDS011;67281;48.770;11.440;2023-03-01T14:00:35;13.43;;;10.57;;
78072;SDS011;67281;48.770;11.440;2023-03-01T14:03:05;12.97;;;10.03;;
78072;SDS011;67281;48.770;11.440;2023-03-01T14:05:37;12.43;;;10.60;;
78072;SDS011;67281;48.770;11.440;2023-03-01T14:08:17;13.53;;;9.80;;
78072;SDS011;67281;48.770;11.440;2023-03-01T14:10:53;18.87;;;10.60;;
78072;SDS011;67281;48.770;11.440;2023-03-01T14:13:27;13.63;;;10.13;;
78072;SDS011;67281;48.770;11.440;2023-03-01T14:21:06;15.17;;;10.57;;
78072;SDS011;67281;48.770;11.440;2023-03-01T14:23:37;13.53;;;10.60;;
78072;SDS011;67281;48.770;11.440;2023-03-01T14:26:08;16.53;;;11.03;;
78072;SDS011;67281;48.770;11.440;2023-03-01T14:28:38;14.93;;;11.20;;
78072;SDS011;67281;48.770;11.440;2023-03-01T14:33:55;14.10;;;11.10;;
78072;SDS011;67281;48.770;11.440;2023-03-01T14:36:40;13.13;;;11.40;;
78072;SDS011;67281;48.770;11.440;2023-03-01T14:39:15;15.77;;;11.57;;
78072;SDS011;67281;48.770;11.440;2023-03-01T14:41:44;14.00;;;11.50;;
78072;SDS011;67281;48.770;11.440;2023-03-01T14:44:14;13.27;;;11.70;;
78072;SDS011;67281;48.770;11.440;2023-03-01T14:46:52;17.13;;;11.97;;
78072;SDS011;67281;48.770;11.440;2023-03-01T14:49:22;17.43;;;12.00;;
78072;SDS011;67281;48.770;11.440;2023-03-01T14:51:53;19.60;;;12.30;;
78072;SDS011;67281;48.770;11.440;2023-03-01T14:54:24;13.13;;;10.67;;
78072;SDS011;67281;48.770;11.440;2023-03-01T14:56:57;15.80;;;11.23;;
78072;SDS011;67281;48.770;11.440;2023-03-01T14:59:26;13.37;;;11.97;;
78072;SDS011;67281;48.770;11.440;2023-03-01T15:01:53;14.17;;;11.13;;
78072;SDS011;67281;48.770;11.440;2023-03-01T15:04:22;12.93;;;10.80;;
78072;SDS011;67281;48.770;11.440;2023-03-01T15:06:51;6.53;;;5.37;;
78072;SDS011;67281;48.770;11.440;2023-03-01T15:12:46;14.53;;;10.80;;
78072;SDS011;67281;48.770;11.440;2023-03-01T15:18:00;13.40;;;9.97;;
78072;SDS011;67281;48.770;11.440;2023-03-01T15:20:29;13.63;;;9.73;;
78072;SDS011;67281;48.770;11.440;2023-03-01T15:23:01;13.97;;;10.27;;
78072;SDS011;67281;48.770;11.440;2023-03-01T15:25:30;14.03;;;10.53;;
78072;SDS011;67281;48.770;11.440;2023-03-01T15:27:59;18.43;;;11.10;;
78072;SDS011;67281;48.770;11.440;2023-03-01T15:34:19;12.57;;;10.10;;
78072;SDS011;67281;48.770;11.440;2023-03-01T15:36:49;15.07;;;11.07;;
78072;SDS011;67281;48.770;11.440;2023-03-01T15:39:30;14.23;;;10.83;;
78072;SDS011;67281;48.770;11.440;2023-03-01T15:42:11;15.17;;;10.53;;
78072;SDS011;67281;48.770;11.440;2023-03-01T15:44:40;14.80;;;11.63;;
78072;SDS011;67281;48.770;11.440;2023-03-01T15:47:31;14.87;;;12.27;;
78072;SDS011;67281;48.770;11.440;2023-03-01T15:49:58;17.37;;;11.57;;
78072;SDS011;67281;48.770;11.440;2023-03-01T15:52:34;18.73;;;12.63;;
78072;SDS011;67281;48.770;11.440;2023-03-01T15:55:06;17.20;;;13.20;;
78072;SDS011;67281;48.770;11.440;2023-03-01T15:57:42;21.97;;;13.17;;
78072;SDS011;67281;48.770;11.440;2023-03-01T16:00:09;19.60;;;13.83;;
78072;SDS011;67281;48.770;11.440;2023-03-01T16:02:40;16.87;;;13.70;;
78072;SDS011;67281;48.770;11.440;2023-03-01T16:05:16;19.87;;;12.63;;
78072;SDS011;67281;48.770;11.440;2023-03-01T16:07:46;18.17;;;14.80;;
78072;SDS011;67281;48.770;11.440;2023-03-01T16:10:13;17.43;;;14.83;;
78072;SDS011;67281;48.770;11.440;2023-03-01T16:12:40;18.00;;;13.87;;
78072;SDS011;67281;48.770;11.440;2023-03-01T16:15:10;21.43;;;14.90;;
78072;SDS011;67281;48.770;11.440;2023-03-01T16:17:46;19.80;;;14.97;;
78072;SDS011;67281;48.770;11.440;2023-03-01T16:20:14;20.77;;;15.90;;
78072;SDS011;67281;48.770;11.440;2023-03-01T16:22:54;27.10;;;15.83;;
78072;SDS011;67281;48.770;11.440;2023-03-01T16:25:21;21.33;;;15.07;;
78072;SDS011;67281;48.770;11.440;2023-03-01T16:27:49;22.47;;;14.90;;
78072;SDS011;67281;48.770;11.440;2023-03-01T16:30:20;20.93;;;15.10;;
78072;SDS011;67281;48.770;11.440;2023-03-01T16:33:06;21.67;;;15.43;;
78072;SDS011;67281;48.770;11.440;2023-03-01T16:35:58;20.77;;;15.97;;
78072;SDS011;67281;48.770;11.440;2023-03-01T16:38:30;19.47;;;15.47;;
78072;SDS011;67281;48.770;11.440;2023-03-01T16:40:58;24.70;;;16.90;;
78072;SDS011;67281;48.770;11.440;2023-03-01T16:43:26;22.33;;;13.97;;
78072;SDS011;67281;48.770;11.440;2023-03-01T16:45:56;18.47;;;14.47;;
78072;SDS011;67281;48.770;11.440;2023-03-01T16:48:23;21.80;;;15.43;;
78072;SDS011;67281;48.770;11.440;2023-03-01T16:50:57;20.67;;;16.13;;